Hauptseite
METAR-TAF:

METAR-TAF

Flughäfen :

Flughafen Tetouan Sania Ramel

Tétouan, Marokko

Breite: 35-35N, Länge: 005-20W, Höhe: 10 m

Beobachtung

Neuester Wetterbericht von vor 43 Minuten, um 03:00 UTC
Wind 16 kt aus Ost
Temperatur 16°C
Luftfeuchtigkeit 88%
Luftdruck 1015 hPa

METAR: GMTN 060300Z 09016KT 16/14 Q1015

Zeit: 04:43 (03:43 UTC)


TAF: fehlend

Wetterbeobachtungen und Prognosen von mehr als 4000 Flughäfen (METAR und TAF Bericht).

Die verfügbaren Stationen werden durch gelbe und rote Markierungen auf der Karte dargestellt.

Führen Sie die Maus auf sie, um den Namen der Station zu sehen.

Darauf klicken, um die Beobachtung von Wetterbeobachtungen und Prognosen zu sehen.

Um die Karte zu ändern : klicken Sie auf den grünen Tasten mit einem schwarzen Kreuz Zum Vergrößern, auf den grünen Button mit einem Gedankenstrich zu verkleinern, oder auf die grünen Pfeile für benachbarte Karten.


METAR-TAF: